createdAt,value
2023-05-13T00:00:32.646Z,9.00
2023-05-13T00:01:32.625Z,9.00
2023-05-13T00:02:32.695Z,9.00
2023-05-13T00:03:32.765Z,9.10
2023-05-13T00:04:32.596Z,9.20
2023-05-13T00:05:32.544Z,9.40
2023-05-13T00:06:32.600Z,9.00
2023-05-13T00:07:32.532Z,9.30
2023-05-13T00:08:32.523Z,9.10
2023-05-13T00:09:32.529Z,9.60
2023-05-13T00:10:32.491Z,9.30
2023-05-13T00:11:32.557Z,10.10
2023-05-13T00:12:32.478Z,9.50
2023-05-13T00:13:32.481Z,9.30
2023-05-13T00:14:32.462Z,9.10
2023-05-13T00:15:32.453Z,9.40
2023-05-13T00:16:32.480Z,9.90
2023-05-13T00:17:32.432Z,9.30
2023-05-13T00:18:32.463Z,9.20
2023-05-13T00:19:32.419Z,8.80
2023-05-13T00:20:32.403Z,9.20
2023-05-13T00:21:32.386Z,9.10
2023-05-13T00:22:32.384Z,9.10
2023-05-13T00:23:32.385Z,9.10
2023-05-13T00:24:32.350Z,9.10
2023-05-13T00:25:32.341Z,8.30
2023-05-13T00:26:32.349Z,8.70
2023-05-13T00:27:32.358Z,8.80
2023-05-13T00:28:32.443Z,9.00
2023-05-13T00:29:32.300Z,8.90
2023-05-13T00:30:32.310Z,8.90
2023-05-13T00:31:32.430Z,8.90
2023-05-13T00:32:32.373Z,9.10
2023-05-13T00:33:32.275Z,8.80
2023-05-13T00:34:32.253Z,9.00
2023-05-13T00:35:32.261Z,9.20
2023-05-13T00:36:32.244Z,9.30
2023-05-13T00:37:32.236Z,9.90
2023-05-13T00:38:32.234Z,9.30
2023-05-13T00:39:32.225Z,9.50
2023-05-13T00:40:32.190Z,9.10
2023-05-13T00:41:32.208Z,9.30
2023-05-13T00:42:32.207Z,9.30
2023-05-13T00:43:32.170Z,9.70
2023-05-13T00:44:32.157Z,9.50
2023-05-13T00:45:32.211Z,9.80
2023-05-13T00:46:32.207Z,9.40
2023-05-13T00:47:32.155Z,8.60
2023-05-13T00:48:32.127Z,9.20
2023-05-13T00:49:32.121Z,9.20
2023-05-13T00:50:32.102Z,9.00
2023-05-13T00:51:32.098Z,9.10
2023-05-13T00:52:32.072Z,9.10
2023-05-13T00:53:32.058Z,8.80
2023-05-13T00:54:32.072Z,9.00
2023-05-13T00:55:32.065Z,8.50
2023-05-13T00:56:32.034Z,8.40
2023-05-13T00:57:32.044Z,8.30
2023-05-13T00:58:32.028Z,9.00
2023-05-13T00:59:31.996Z,8.60
2023-05-13T01:00:31.993Z,9.40
2023-05-13T01:01:32.197Z,9.00
2023-05-13T01:02:32.145Z,9.00
2023-05-13T01:03:32.000Z,9.00
2023-05-13T01:04:31.952Z,9.50
2023-05-13T01:05:31.955Z,9.40
2023-05-13T01:06:31.951Z,9.80
2023-05-13T01:07:31.921Z,9.40
2023-05-13T01:08:31.907Z,10.00
2023-05-13T01:09:31.897Z,10.00
2023-05-13T01:10:31.893Z,9.50
2023-05-13T01:11:31.884Z,9.70
2023-05-13T01:12:31.872Z,9.60
2023-05-13T01:13:31.857Z,9.80
2023-05-13T01:14:31.882Z,10.10
2023-05-13T01:15:31.846Z,10.60
2023-05-13T01:16:31.840Z,10.50
2023-05-13T01:17:31.969Z,11.10
2023-05-13T01:18:31.867Z,10.60
2023-05-13T01:19:31.817Z,10.60
2023-05-13T01:20:31.791Z,10.20
2023-05-13T01:21:31.777Z,10.70
2023-05-13T01:22:31.772Z,10.60
2023-05-13T01:23:31.754Z,10.00
2023-05-13T01:24:31.810Z,10.20
2023-05-13T01:25:31.737Z,11.10
2023-05-13T01:26:31.729Z,10.70
2023-05-13T01:27:31.717Z,11.00
2023-05-13T01:28:31.744Z,10.80
2023-05-13T01:29:31.716Z,11.00
2023-05-13T01:30:31.685Z,10.80
2023-05-13T01:31:31.763Z,10.70
2023-05-13T01:32:31.725Z,10.50
2023-05-13T01:33:31.683Z,10.40
2023-05-13T01:34:31.659Z,10.10
2023-05-13T01:35:31.648Z,10.50
2023-05-13T01:36:31.623Z,10.70
2023-05-13T01:37:31.618Z,10.60
2023-05-13T01:38:31.620Z,10.10
2023-05-13T01:39:31.638Z,10.10
2023-05-13T01:40:32.861Z,10.10
2023-05-13T01:41:32.587Z,10.10
2023-05-13T01:42:31.585Z,9.80
2023-05-13T01:43:31.563Z,10.20
2023-05-13T01:44:31.559Z,10.30
2023-05-13T01:45:31.534Z,10.00
2023-05-13T01:46:31.583Z,9.40
2023-05-13T01:47:31.559Z,9.60
2023-05-13T01:48:31.504Z,9.70
2023-05-13T01:49:31.503Z,9.50
2023-05-13T01:50:31.518Z,9.70
2023-05-13T01:51:31.490Z,9.90
2023-05-13T01:52:31.483Z,9.80
2023-05-13T01:53:31.461Z,9.70
2023-05-13T01:54:31.445Z,9.90
2023-05-13T01:55:31.433Z,10.20
2023-05-13T01:56:31.444Z,9.90
2023-05-13T01:57:31.495Z,9.70
2023-05-13T01:58:31.411Z,10.40
2023-05-13T01:59:31.402Z,9.60
2023-05-13T02:00:31.384Z,10.00
2023-05-13T02:01:31.426Z,10.10
2023-05-13T02:02:31.425Z,10.20
2023-05-13T02:03:31.451Z,10.20
2023-05-13T02:04:31.345Z,9.60
2023-05-13T02:05:31.345Z,9.90
2023-05-13T02:06:31.361Z,9.10
2023-05-13T02:07:31.318Z,9.40
2023-05-13T02:08:31.325Z,9.60
2023-05-13T02:09:31.291Z,9.20
2023-05-13T02:10:31.317Z,9.00
2023-05-13T02:11:31.298Z,9.20
2023-05-13T02:12:31.268Z,9.30
2023-05-13T02:13:31.255Z,9.60
2023-05-13T02:14:31.254Z,9.40
2023-05-13T02:15:31.255Z,10.00
2023-05-13T02:16:31.290Z,9.70
2023-05-13T02:17:31.267Z,9.70
2023-05-13T02:18:31.246Z,9.60
2023-05-13T02:19:32.208Z,9.70
2023-05-13T02:20:31.214Z,9.70
2023-05-13T02:21:31.190Z,9.80
2023-05-13T02:22:31.173Z,10.00
2023-05-13T02:23:31.156Z,9.80
2023-05-13T02:24:31.209Z,9.80
2023-05-13T02:25:31.158Z,9.50
2023-05-13T02:26:31.144Z,9.30
2023-05-13T02:27:31.129Z,8.90
2023-05-13T02:28:31.105Z,9.60
2023-05-13T02:29:31.116Z,9.40
2023-05-13T02:30:31.098Z,9.90
2023-05-13T02:31:31.119Z,10.10
2023-05-13T02:32:31.120Z,10.10
2023-05-13T02:33:31.065Z,10.10
2023-05-13T02:34:31.073Z,10.30
2023-05-13T02:35:31.040Z,9.70
2023-05-13T02:36:31.036Z,9.60
2023-05-13T02:37:31.047Z,9.40
2023-05-13T02:38:31.040Z,10.00
2023-05-13T02:39:31.026Z,9.50
2023-05-13T02:40:31.007Z,9.50
2023-05-13T02:41:30.978Z,9.80
2023-05-13T02:42:30.965Z,9.30
2023-05-13T02:43:30.991Z,9.40
2023-05-13T02:44:30.994Z,9.60
2023-05-13T02:45:30.968Z,9.30
2023-05-13T02:46:31.018Z,9.50
2023-05-13T02:47:30.970Z,9.30
2023-05-13T02:48:30.941Z,9.60
2023-05-13T02:49:30.922Z,9.40
2023-05-13T02:50:30.934Z,9.40
2023-05-13T02:51:30.915Z,9.20
2023-05-13T02:52:30.917Z,8.90
2023-05-13T02:53:30.944Z,8.90
2023-05-13T02:54:30.869Z,9.50
2023-05-13T02:55:30.919Z,9.10
2023-05-13T02:56:30.865Z,8.80
2023-05-13T02:57:30.880Z,9.40
2023-05-13T02:58:30.835Z,9.40
2023-05-13T02:59:30.834Z,9.50
2023-05-13T03:00:30.812Z,9.40
2023-05-13T03:01:30.887Z,9.70
2023-05-13T03:02:30.970Z,10.10
2023-05-13T03:03:31.889Z,9.90
2023-05-13T03:04:30.766Z,9.20
2023-05-13T03:05:30.779Z,9.20
2023-05-13T03:06:30.780Z,9.50
2023-05-13T03:07:30.780Z,9.30
2023-05-13T03:08:30.741Z,9.50
2023-05-13T03:09:30.725Z,9.30
2023-05-13T03:10:30.704Z,9.80
2023-05-13T03:11:30.729Z,9.70
2023-05-13T03:12:30.707Z,9.20
2023-05-13T03:13:30.692Z,9.20
2023-05-13T03:14:30.677Z,9.20
2023-05-13T03:15:30.659Z,9.50
2023-05-13T03:16:30.706Z,9.20
2023-05-13T03:17:30.671Z,10.10
2023-05-13T03:18:30.681Z,9.80
2023-05-13T03:19:30.614Z,10.10
2023-05-13T03:20:30.620Z,10.40
2023-05-13T03:21:30.631Z,10.40
2023-05-13T03:22:30.597Z,11.20
2023-05-13T03:23:30.578Z,10.50
2023-05-13T03:24:30.572Z,10.40
2023-05-13T03:25:30.585Z,10.00
2023-05-13T03:26:30.565Z,10.60
2023-05-13T03:27:30.546Z,10.80
2023-05-13T03:28:30.529Z,10.20
2023-05-13T03:29:30.524Z,10.60
2023-05-13T03:30:30.528Z,11.00
2023-05-13T03:31:30.601Z,10.90
2023-05-13T03:32:30.582Z,10.90
2023-05-13T03:33:30.473Z,11.50
2023-05-13T03:34:30.487Z,11.80
2023-05-13T03:35:30.486Z,11.40
2023-05-13T03:36:30.452Z,11.90
2023-05-13T03:37:30.443Z,11.10
2023-05-13T03:38:30.439Z,11.60
2023-05-13T03:39:30.451Z,12.10
2023-05-13T03:40:30.438Z,11.70
2023-05-13T03:41:30.406Z,12.00
2023-05-13T03:42:30.393Z,11.40
2023-05-13T03:43:30.405Z,12.30
2023-05-13T03:44:30.403Z,11.50
2023-05-13T03:45:30.369Z,11.70
2023-05-13T03:46:30.399Z,11.70
2023-05-13T03:47:30.381Z,12.60
2023-05-13T03:48:30.362Z,12.70
2023-05-13T03:49:30.342Z,12.20
2023-05-13T03:50:30.324Z,12.20
2023-05-13T03:51:30.310Z,12.40
2023-05-13T03:52:30.317Z,12.40
2023-05-13T03:53:30.314Z,12.30
2023-05-13T03:54:30.281Z,12.10
2023-05-13T03:55:30.278Z,11.60
2023-05-13T03:56:30.291Z,11.30
2023-05-13T03:57:30.265Z,10.80
2023-05-13T03:58:30.273Z,11.40
2023-05-13T03:59:30.228Z,11.60
2023-05-13T04:00:30.234Z,11.10
2023-05-13T04:01:30.222Z,11.70
2023-05-13T04:02:30.310Z,11.60
2023-05-13T04:03:30.251Z,11.80
2023-05-13T04:04:30.241Z,11.50
2023-05-13T04:05:30.173Z,11.60
2023-05-13T04:06:30.165Z,11.50
2023-05-13T04:07:30.171Z,11.00
2023-05-13T04:08:30.158Z,11.20
2023-05-13T04:09:30.156Z,11.60
2023-05-13T04:10:30.140Z,10.80
2023-05-13T04:11:30.118Z,10.70
2023-05-13T04:12:30.133Z,10.30
2023-05-13T04:13:30.102Z,10.80
2023-05-13T04:14:30.082Z,10.10
2023-05-13T04:15:30.083Z,11.10
2023-05-13T04:16:30.207Z,10.70
2023-05-13T04:17:30.103Z,11.30
2023-05-13T04:18:30.063Z,10.90
2023-05-13T04:19:30.055Z,11.30
2023-05-13T04:20:30.032Z,10.80
2023-05-13T04:21:30.027Z,11.00
2023-05-13T04:22:30.043Z,11.70
2023-05-13T04:23:29.997Z,11.10
2023-05-13T04:24:29.999Z,11.00
2023-05-13T04:25:30.003Z,11.30
2023-05-13T04:26:30.004Z,11.20
2023-05-13T04:27:29.969Z,11.20
2023-05-13T04:28:29.986Z,11.80
2023-05-13T04:29:29.949Z,10.90
2023-05-13T04:30:29.952Z,12.30
2023-05-13T04:31:29.986Z,12.30
2023-05-13T04:32:29.945Z,12.30
2023-05-13T04:33:29.914Z,11.20
2023-05-13T04:34:29.912Z,11.10
2023-05-13T04:35:29.916Z,10.70
2023-05-13T04:36:29.890Z,12.10
2023-05-13T04:37:29.863Z,11.10
2023-05-13T04:38:29.861Z,11.10
2023-05-13T04:39:29.847Z,11.00
2023-05-13T04:40:29.850Z,11.10
2023-05-13T04:41:29.856Z,10.80
2023-05-13T04:42:29.821Z,10.40
2023-05-13T04:43:29.819Z,11.10
2023-05-13T04:44:29.801Z,11.10
2023-05-13T04:45:29.822Z,10.00
2023-05-13T04:46:29.843Z,10.40
2023-05-13T04:47:29.815Z,10.80
2023-05-13T04:48:29.791Z,10.40
2023-05-13T04:49:29.785Z,11.70
2023-05-13T04:50:29.746Z,12.30
2023-05-13T04:51:29.745Z,12.40
2023-05-13T04:52:29.720Z,12.70
2023-05-13T04:53:29.717Z,12.80
2023-05-13T04:54:29.717Z,12.60
2023-05-13T04:55:29.695Z,12.60
2023-05-13T04:56:29.687Z,13.00
2023-05-13T04:57:29.674Z,13.10
2023-05-13T04:58:29.692Z,13.10
2023-05-13T04:59:29.686Z,12.70
2023-05-13T05:00:29.656Z,13.10
2023-05-13T05:01:29.668Z,12.70
2023-05-13T05:02:29.646Z,12.00
2023-05-13T05:03:29.668Z,12.90
2023-05-13T05:04:29.601Z,12.50
2023-05-13T05:05:29.585Z,13.10
2023-05-13T05:06:29.610Z,11.30
2023-05-13T05:07:29.603Z,11.80
2023-05-13T05:08:29.596Z,11.20
2023-05-13T05:09:29.588Z,10.90
2023-05-13T05:10:29.591Z,10.70
2023-05-13T05:11:29.538Z,10.80
2023-05-13T05:12:29.540Z,10.40
2023-05-13T05:13:29.545Z,10.40
2023-05-13T05:14:29.515Z,10.50
2023-05-13T05:16:01.414Z,10.40
2023-05-13T05:16:29.507Z,11.30
2023-05-13T05:17:29.615Z,10.70
2023-05-13T05:18:29.668Z,10.60
2023-05-13T05:19:29.503Z,10.80
2023-05-13T05:20:29.470Z,10.50
2023-05-13T05:21:29.462Z,10.90
2023-05-13T05:22:29.464Z,10.80
2023-05-13T05:23:29.432Z,10.40
2023-05-13T05:24:29.410Z,10.00
2023-05-13T05:25:29.412Z,10.20
2023-05-13T05:26:29.424Z,10.30
2023-05-13T05:27:29.384Z,9.40
2023-05-13T05:28:29.437Z,10.20
2023-05-13T05:29:29.391Z,9.70
2023-05-13T05:30:29.344Z,9.80
2023-05-13T05:31:29.384Z,9.40
2023-05-13T05:32:29.358Z,9.30
2023-05-13T05:33:29.368Z,9.40
2023-05-13T05:34:29.318Z,9.40
2023-05-13T05:35:29.318Z,9.60
2023-05-13T05:36:29.302Z,9.20
2023-05-13T05:37:29.311Z,9.40
2023-05-13T05:38:29.306Z,9.00
2023-05-13T05:39:29.271Z,9.70
2023-05-13T05:40:29.266Z,8.80
2023-05-13T05:41:29.263Z,9.30
2023-05-13T05:42:29.233Z,9.40
2023-05-13T05:43:29.221Z,8.90
2023-05-13T05:44:29.202Z,8.60
2023-05-13T05:45:29.236Z,9.20
2023-05-13T05:46:29.311Z,8.80
2023-05-13T05:47:29.205Z,9.30
2023-05-13T05:48:29.173Z,9.00
2023-05-13T05:49:29.166Z,8.30
2023-05-13T05:50:29.167Z,8.60
2023-05-13T05:51:29.143Z,9.60
2023-05-13T05:52:29.137Z,8.50
2023-05-13T05:53:29.127Z,9.10
2023-05-13T05:54:29.137Z,8.40
2023-05-13T05:55:29.114Z,8.00
2023-05-13T05:56:29.092Z,7.40
2023-05-13T05:57:29.076Z,7.90
2023-05-13T05:58:29.087Z,8.20
2023-05-13T05:59:29.072Z,8.20
2023-05-13T06:00:29.172Z,7.40
2023-05-13T06:01:29.042Z,7.60
2023-05-13T06:02:29.131Z,8.20
2023-05-13T06:03:29.134Z,7.90
2023-05-13T06:04:29.092Z,8.50
2023-05-13T06:05:29.003Z,8.50
2023-05-13T06:06:29.037Z,8.10
2023-05-13T06:07:28.983Z,8.20
2023-05-13T06:08:29.006Z,8.50
2023-05-13T06:09:28.998Z,8.20
2023-05-13T06:10:29.034Z,9.00
2023-05-13T06:11:28.949Z,8.40
2023-05-13T06:12:28.949Z,8.40
2023-05-13T06:13:28.945Z,7.80
2023-05-13T06:14:28.909Z,7.70
2023-05-13T06:15:28.912Z,7.60
2023-05-13T06:16:28.977Z,7.90
2023-05-13T06:17:28.932Z,7.30
2023-05-13T06:18:28.928Z,7.80
2023-05-13T06:19:28.904Z,7.20
2023-05-13T06:20:28.856Z,7.40
2023-05-13T06:21:28.853Z,7.40
2023-05-13T06:22:28.885Z,6.80
2023-05-13T06:23:28.851Z,7.20
2023-05-13T06:24:28.820Z,6.90
2023-05-13T06:25:28.807Z,7.00
2023-05-13T06:26:28.807Z,6.90
2023-05-13T06:27:28.849Z,6.70
2023-05-13T06:28:28.779Z,7.00
2023-05-13T06:29:28.771Z,6.80
2023-05-13T06:30:28.785Z,6.80
2023-05-13T06:31:28.887Z,6.70
2023-05-13T06:32:28.767Z,6.70
2023-05-13T06:33:28.803Z,6.70
2023-05-13T06:34:28.738Z,6.90
2023-05-13T06:35:28.742Z,6.60
2023-05-13T06:36:28.717Z,6.70
2023-05-13T06:37:28.704Z,6.50
2023-05-13T06:38:28.698Z,6.60
2023-05-13T06:39:28.690Z,6.30
2023-05-13T06:40:28.697Z,6.60
2023-05-13T06:41:28.676Z,6.50
2023-05-13T06:42:28.643Z,6.40
2023-05-13T06:43:28.659Z,6.20
2023-05-13T06:44:28.623Z,6.60
2023-05-13T06:45:28.625Z,5.90
2023-05-13T06:46:28.643Z,6.30
2023-05-13T06:47:28.599Z,5.90
2023-05-13T06:48:28.582Z,5.90
2023-05-13T06:49:28.568Z,6.10
2023-05-13T06:50:28.580Z,5.70
2023-05-13T06:51:28.587Z,5.80
2023-05-13T06:52:28.538Z,6.20
2023-05-13T06:53:28.530Z,5.90
2023-05-13T06:54:28.540Z,6.30
2023-05-13T06:55:28.520Z,6.00
2023-05-13T06:56:28.498Z,6.30
2023-05-13T06:57:41.470Z,6.50
2023-05-13T06:58:30.478Z,6.00
2023-05-13T06:59:29.495Z,6.00
2023-05-13T07:00:28.482Z,5.90
2023-05-13T07:01:28.474Z,5.80
2023-05-13T07:02:28.510Z,5.80
2023-05-13T07:03:28.484Z,5.70
2023-05-13T07:04:28.451Z,6.00
2023-05-13T07:05:28.427Z,5.80
2023-05-13T07:06:28.401Z,5.70
2023-05-13T07:07:28.414Z,5.80
2023-05-13T07:08:28.415Z,5.60
2023-05-13T07:09:28.400Z,5.90
2023-05-13T07:10:28.398Z,5.50
2023-05-13T07:11:28.356Z,5.10
2023-05-13T07:12:28.345Z,5.40
2023-05-13T07:13:28.364Z,5.50
2023-05-13T07:14:28.351Z,5.40
2023-05-13T07:15:28.319Z,4.80
2023-05-13T07:16:28.298Z,5.10
2023-05-13T07:17:28.374Z,4.50
2023-05-13T07:18:28.397Z,4.30
2023-05-13T07:19:28.274Z,4.50
2023-05-13T07:20:28.273Z,4.40
2023-05-13T07:21:28.244Z,4.20
2023-05-13T07:22:28.236Z,4.50
2023-05-13T07:23:28.257Z,4.40
2023-05-13T07:24:28.217Z,4.80
2023-05-13T07:25:28.219Z,4.70
2023-05-13T07:26:28.213Z,4.20
2023-05-13T07:27:28.210Z,4.40
2023-05-13T07:28:28.199Z,4.40
2023-05-13T07:29:28.178Z,4.20
2023-05-13T07:30:28.163Z,4.40
2023-05-13T07:31:28.232Z,4.50
2023-05-13T07:32:28.191Z,4.50
2023-05-13T07:33:28.150Z,4.10
2023-05-13T07:34:28.117Z,4.50
2023-05-13T07:35:28.115Z,4.40
2023-05-13T07:36:28.124Z,4.20
2023-05-13T07:37:28.105Z,4.70
2023-05-13T07:38:28.118Z,4.20
2023-05-13T07:39:28.089Z,4.40
2023-05-13T07:40:28.068Z,4.20
2023-05-13T07:41:28.058Z,4.40
2023-05-13T07:42:28.070Z,4.10
2023-05-13T07:43:28.054Z,4.60
2023-05-13T07:44:28.038Z,4.20
2023-05-13T07:45:28.025Z,4.60
2023-05-13T07:46:28.066Z,4.30
2023-05-13T07:47:28.025Z,4.10
2023-05-13T07:48:27.999Z,4.40
2023-05-13T07:49:27.982Z,3.80
2023-05-13T07:50:27.964Z,4.10
2023-05-13T07:51:27.989Z,4.30
2023-05-13T07:52:27.945Z,4.10
2023-05-13T07:53:27.949Z,3.90
2023-05-13T07:54:27.936Z,4.10
2023-05-13T07:55:27.926Z,4.00
2023-05-13T07:56:27.949Z,4.30
2023-05-13T07:57:27.904Z,4.20
2023-05-13T07:58:27.890Z,4.00
2023-05-13T07:59:27.884Z,4.40
2023-05-13T08:00:27.927Z,4.10
2023-05-13T08:01:27.878Z,4.10
2023-05-13T08:02:27.936Z,3.80
2023-05-13T08:03:27.883Z,4.00
2023-05-13T08:04:27.890Z,4.10
2023-05-13T08:05:27.854Z,4.10
2023-05-13T08:06:27.819Z,4.00
2023-05-13T08:07:27.804Z,4.00
2023-05-13T08:08:27.800Z,4.10
2023-05-13T08:09:27.785Z,3.80
2023-05-13T08:10:27.838Z,4.30
2023-05-13T08:11:27.765Z,4.40
2023-05-13T08:12:27.752Z,4.20
2023-05-13T08:13:27.752Z,4.40
2023-05-13T08:14:27.780Z,4.10
2023-05-13T08:15:27.743Z,4.00
2023-05-13T08:16:27.775Z,4.00
2023-05-13T08:17:27.785Z,4.00
2023-05-13T08:18:27.745Z,4.10
2023-05-13T08:19:27.704Z,4.00
2023-05-13T08:20:27.676Z,4.10
2023-05-13T08:21:27.654Z,4.20
2023-05-13T08:22:27.665Z,3.90
2023-05-13T08:23:40.848Z,4.10
2023-05-13T08:24:29.647Z,3.80
2023-05-13T08:25:27.615Z,3.80
2023-05-13T08:26:27.612Z,3.60
2023-05-13T08:27:27.595Z,4.20
2023-05-13T08:28:27.624Z,4.30
2023-05-13T08:29:27.600Z,4.10
2023-05-13T08:30:27.596Z,4.00
2023-05-13T08:31:27.576Z,3.90
2023-05-13T08:32:27.555Z,3.80
2023-05-13T08:33:27.547Z,4.00
2023-05-13T08:34:27.547Z,4.10
2023-05-13T08:35:27.543Z,4.40
2023-05-13T08:36:27.577Z,3.80
2023-05-13T08:37:27.535Z,4.00
2023-05-13T08:38:27.501Z,3.80
2023-05-13T08:39:27.516Z,3.60
2023-05-13T08:40:27.484Z,3.90
2023-05-13T08:41:27.474Z,3.90
2023-05-13T08:42:27.471Z,4.10
2023-05-13T08:43:27.472Z,4.00
2023-05-13T08:44:27.446Z,3.90
2023-05-13T08:45:27.420Z,4.30
2023-05-13T08:46:27.441Z,4.10
2023-05-13T08:47:27.411Z,4.10
2023-05-13T08:48:27.438Z,3.80
2023-05-13T08:49:27.388Z,4.00
2023-05-13T08:50:27.396Z,3.90
2023-05-13T08:51:27.371Z,3.80
2023-05-13T08:52:27.412Z,3.80
2023-05-13T08:53:27.360Z,3.70
2023-05-13T08:54:27.375Z,3.50
2023-05-13T08:55:27.340Z,3.70
2023-05-13T08:56:27.334Z,3.70
2023-05-13T08:57:27.356Z,3.50
2023-05-13T08:58:27.672Z,3.70
2023-05-13T08:59:27.283Z,3.40
2023-05-13T09:00:27.274Z,3.30
2023-05-13T09:01:27.304Z,3.30
2023-05-13T09:02:27.338Z,3.30
2023-05-13T09:03:27.274Z,3.50
2023-05-13T09:04:27.285Z,3.40
2023-05-13T09:05:27.621Z,3.40
2023-05-13T09:06:27.273Z,3.40
2023-05-13T09:07:27.267Z,3.60
2023-05-13T09:08:27.206Z,3.40
2023-05-13T09:09:27.204Z,3.40
2023-05-13T09:10:27.207Z,3.40
2023-05-13T09:11:27.171Z,3.20
2023-05-13T09:12:27.186Z,3.10
2023-05-13T09:13:27.156Z,3.30
2023-05-13T09:14:27.136Z,2.90
2023-05-13T09:15:27.129Z,3.00
2023-05-13T09:16:27.153Z,3.20
2023-05-13T09:17:27.177Z,3.20
2023-05-13T09:18:27.183Z,3.00
2023-05-13T09:19:27.176Z,3.30
2023-05-13T09:20:27.155Z,3.10
2023-05-13T09:21:27.079Z,3.10
2023-05-13T09:22:27.072Z,3.10
2023-05-13T09:23:27.049Z,3.10
2023-05-13T09:24:27.071Z,3.10
2023-05-13T09:25:27.101Z,3.30
2023-05-13T09:26:27.025Z,3.30
2023-05-13T09:27:27.016Z,3.10
2023-05-13T09:28:27.026Z,3.20
2023-05-13T09:29:27.029Z,2.90
2023-05-13T09:30:26.986Z,3.20
2023-05-13T09:31:26.990Z,3.10
2023-05-13T09:32:26.967Z,3.10
2023-05-13T09:33:26.981Z,3.20
2023-05-13T09:34:26.985Z,3.20
2023-05-13T09:35:26.922Z,3.20
2023-05-13T09:36:26.959Z,3.60
2023-05-13T09:37:26.914Z,3.60
2023-05-13T09:38:26.962Z,3.30
2023-05-13T09:39:26.911Z,3.20
2023-05-13T09:40:26.879Z,3.20
2023-05-13T09:41:26.913Z,3.30
2023-05-13T09:42:26.862Z,3.20
2023-05-13T09:43:26.869Z,3.40
2023-05-13T09:44:26.862Z,3.40
2023-05-13T09:45:26.829Z,3.20
2023-05-13T09:46:27.866Z,3.20
2023-05-13T09:47:26.841Z,3.50
2023-05-13T09:48:26.850Z,3.50
2023-05-13T09:49:26.802Z,3.50
2023-05-13T09:50:26.779Z,3.60
2023-05-13T09:51:26.782Z,3.30
2023-05-13T09:52:26.771Z,3.40
2023-05-13T09:53:26.782Z,3.40
2023-05-13T09:54:26.742Z,3.10
2023-05-13T09:55:26.740Z,3.00
2023-05-13T09:56:26.721Z,3.40
2023-05-13T09:57:26.736Z,3.50
2023-05-13T09:58:26.755Z,2.90
2023-05-13T09:59:26.731Z,3.30
2023-05-13T10:00:32.596Z,3.10
2023-05-13T10:01:28.750Z,3.00
2023-05-13T10:02:26.681Z,3.00
2023-05-13T10:03:26.727Z,3.20
2023-05-13T10:04:26.845Z,3.20
2023-05-13T10:05:26.629Z,3.10
2023-05-13T10:06:26.653Z,3.10
2023-05-13T10:07:26.641Z,3.10
2023-05-13T10:08:26.614Z,3.10
2023-05-13T10:09:26.660Z,3.20
2023-05-13T10:10:26.591Z,3.20
2023-05-13T10:11:26.595Z,3.40
2023-05-13T10:12:26.578Z,3.10
2023-05-13T10:13:26.586Z,3.10
2023-05-13T10:14:26.550Z,2.80
2023-05-13T10:15:26.541Z,3.00
2023-05-13T10:16:26.550Z,2.80
2023-05-13T10:17:26.543Z,3.10
2023-05-13T10:18:26.560Z,3.10
2023-05-13T10:19:26.521Z,3.10
2023-05-13T10:20:26.542Z,2.90
2023-05-13T10:21:26.506Z,2.70
2023-05-13T10:22:26.508Z,3.00
2023-05-13T10:23:26.461Z,2.80
2023-05-13T10:24:26.493Z,3.00
2023-05-13T10:25:26.483Z,3.10
2023-05-13T10:26:26.445Z,2.80
2023-05-13T10:27:26.432Z,2.70
2023-05-13T10:28:26.450Z,2.80
2023-05-13T10:29:26.414Z,2.80
2023-05-13T10:30:26.489Z,2.80
2023-05-13T10:31:26.412Z,3.00
2023-05-13T10:32:26.468Z,2.80
2023-05-13T10:33:26.359Z,2.80
2023-05-13T10:34:26.365Z,2.70
2023-05-13T10:35:26.378Z,2.90
2023-05-13T10:36:26.329Z,2.80
2023-05-13T10:37:26.329Z,2.90
2023-05-13T10:38:26.316Z,3.20
2023-05-13T10:39:26.323Z,3.00
2023-05-13T10:40:26.297Z,2.80
2023-05-13T10:41:26.287Z,2.90
2023-05-13T10:42:26.275Z,3.10
2023-05-13T10:43:26.257Z,3.00
2023-05-13T10:44:26.261Z,3.10
2023-05-13T10:45:26.237Z,3.20
2023-05-13T10:46:26.269Z,3.20
2023-05-13T10:47:26.312Z,3.30
2023-05-13T10:48:26.389Z,2.80
2023-05-13T10:49:26.233Z,3.00
2023-05-13T10:50:26.192Z,3.10
2023-05-13T10:51:26.199Z,2.90
2023-05-13T10:52:26.161Z,2.80
2023-05-13T10:53:26.284Z,3.30
2023-05-13T10:54:26.148Z,3.10
2023-05-13T10:55:26.159Z,3.10
2023-05-13T10:56:26.130Z,2.80
2023-05-13T10:57:26.130Z,2.80
2023-05-13T10:58:26.140Z,2.90
2023-05-13T10:59:26.095Z,3.00
2023-05-13T11:00:26.098Z,2.90
2023-05-13T11:01:26.100Z,2.90
2023-05-13T11:02:26.143Z,2.90
2023-05-13T11:03:28.781Z,3.10
2023-05-13T11:04:27.067Z,3.30
2023-05-13T11:05:26.037Z,3.10
2023-05-13T11:06:26.030Z,3.40
2023-05-13T11:07:26.088Z,3.20
2023-05-13T11:08:26.079Z,3.10
2023-05-13T11:09:26.006Z,3.30
2023-05-13T11:10:25.999Z,3.00
2023-05-13T11:11:25.989Z,3.30
2023-05-13T11:12:25.981Z,3.20
2023-05-13T11:13:26.973Z,2.90
2023-05-13T11:14:25.952Z,2.70
2023-05-13T11:15:25.935Z,2.80
2023-05-13T11:17:44.762Z,2.40
2023-05-13T11:18:44.812Z,2.80
2023-05-13T11:19:44.715Z,2.70
2023-05-13T11:20:52.090Z,2.70
2023-05-13T11:21:45.713Z,2.80
2023-05-13T11:22:44.687Z,2.80
2023-05-13T11:23:44.681Z,2.70
2023-05-13T11:24:44.668Z,2.70
2023-05-13T11:25:44.674Z,2.80
2023-05-13T11:26:44.677Z,2.60
2023-05-13T11:27:44.639Z,2.70
2023-05-13T11:28:44.633Z,3.00
2023-05-13T11:29:45.760Z,2.70
2023-05-13T11:30:45.752Z,3.00
2023-05-13T11:31:45.737Z,2.80
2023-05-13T11:32:45.735Z,2.60
2023-05-13T11:33:45.712Z,2.60
2023-05-13T11:34:45.706Z,2.80
2023-05-13T11:35:45.741Z,3.20
2023-05-13T11:36:45.691Z,2.70
2023-05-13T11:37:45.655Z,2.90
2023-05-13T11:38:45.656Z,3.10
2023-05-13T11:39:45.672Z,2.70
2023-05-13T11:40:45.633Z,2.60
2023-05-13T11:41:45.635Z,2.80
2023-05-13T11:42:45.606Z,2.80
2023-05-13T11:43:46.618Z,2.90
2023-05-13T11:44:45.615Z,2.70
2023-05-13T11:45:45.631Z,3.10
2023-05-13T11:46:45.569Z,2.90
2023-05-13T11:47:45.630Z,2.70
2023-05-13T11:48:45.548Z,2.80
2023-05-13T11:49:45.555Z,3.00
2023-05-13T11:50:45.559Z,3.00
2023-05-13T11:51:45.532Z,2.80
2023-05-13T11:52:45.603Z,3.00
2023-05-13T11:53:45.518Z,2.90
2023-05-13T11:54:45.512Z,3.40
2023-05-13T11:55:45.537Z,3.40
2023-05-13T11:56:45.481Z,3.50
2023-05-13T11:57:45.484Z,3.60
2023-05-13T11:58:45.463Z,3.40
2023-05-13T11:59:48.389Z,3.10
2023-05-13T12:00:46.798Z,3.20
2023-05-13T12:01:46.533Z,3.40
2023-05-13T12:02:45.507Z,3.30
2023-05-13T12:03:45.453Z,3.10
2023-05-13T12:04:45.540Z,3.30
2023-05-13T12:05:45.533Z,3.60
2023-05-13T12:06:45.382Z,4.10
2023-05-13T12:07:45.438Z,4.00
2023-05-13T12:08:45.438Z,4.20
2023-05-13T12:09:45.352Z,4.00
2023-05-13T12:10:45.364Z,3.90
2023-05-13T12:11:45.397Z,3.50
2023-05-13T12:12:45.351Z,3.50
2023-05-13T12:13:45.311Z,3.60
2023-05-13T12:14:45.321Z,3.40
2023-05-13T12:15:45.321Z,3.10
2023-05-13T12:16:45.291Z,3.20
2023-05-13T12:17:45.337Z,3.30
2023-05-13T12:18:45.298Z,3.80
2023-05-13T12:19:45.268Z,3.40
2023-05-13T12:20:45.275Z,4.30
2023-05-13T12:21:45.253Z,4.30
2023-05-13T12:22:45.246Z,3.60
2023-05-13T12:23:45.226Z,3.30
2023-05-13T12:24:45.213Z,3.80
2023-05-13T12:25:45.359Z,3.50
2023-05-13T12:26:45.190Z,3.80
2023-05-13T12:27:45.176Z,3.50
2023-05-13T12:28:45.155Z,3.60
2023-05-13T12:29:45.173Z,3.30
2023-05-13T12:30:45.142Z,3.10
2023-05-13T12:31:45.219Z,3.70
2023-05-13T12:32:47.197Z,3.40
2023-05-13T12:33:45.130Z,3.60
2023-05-13T12:34:45.104Z,3.50
2023-05-13T12:35:45.127Z,3.50
2023-05-13T12:36:45.127Z,3.70
2023-05-13T12:37:45.077Z,3.40
2023-05-13T12:38:45.082Z,3.40
2023-05-13T12:39:45.056Z,3.30
2023-05-13T12:40:45.087Z,3.50
2023-05-13T12:41:45.032Z,3.50
2023-05-13T12:42:45.044Z,3.50
2023-05-13T12:43:45.020Z,3.90
2023-05-13T12:44:45.027Z,3.60
2023-05-13T12:45:45.328Z,3.60
2023-05-13T12:46:45.080Z,3.80
2023-05-13T12:47:45.005Z,3.40
2023-05-13T12:48:44.975Z,3.50
2023-05-13T12:49:44.974Z,3.70
2023-05-13T12:50:44.957Z,3.50
2023-05-13T12:51:45.007Z,3.40
2023-05-13T12:52:44.926Z,3.40
2023-05-13T12:53:44.904Z,3.40
2023-05-13T12:54:44.960Z,3.90
2023-05-13T12:55:44.899Z,3.40
2023-05-13T12:56:44.885Z,3.40
2023-05-13T12:57:44.894Z,3.40
2023-05-13T12:58:44.876Z,3.60
2023-05-13T12:59:44.896Z,3.60
2023-05-13T13:00:44.900Z,3.40
2023-05-13T13:01:44.898Z,3.80
2023-05-13T13:02:44.885Z,3.50
2023-05-13T13:03:44.991Z,3.50
2023-05-13T13:04:44.830Z,3.60
2023-05-13T13:05:44.802Z,3.30
2023-05-13T13:06:44.796Z,3.60
2023-05-13T13:07:44.785Z,3.50
2023-05-13T13:08:44.786Z,3.50
2023-05-13T13:09:44.762Z,3.40
2023-05-13T13:10:44.774Z,3.60
2023-05-13T13:11:44.755Z,4.50
2023-05-13T13:12:44.732Z,3.50
2023-05-13T13:13:44.729Z,3.40